Vineyard Haven, Massachusetts
Current Conditions -  °F | °C
As of 1:53 PM on Monday 20 Oct 2014 (Local Time) from KMVY Reporting Station
Light Rain Light Rain  
Wind Chill: 54°   Ceiling: Unl
Heat Index: 54°   Visibility: 10mi
Dew Point: 37°   Wind: 13mph
Humidity: 53%   Direction: 240°WSW
Pressure: 30.03"   Gusts: 21mph
Location:  41.46°N, 70.61°W
Report Text: KMVY 201753Z 24011G18KT 10SM -RA CLR 12/03 A3003 RMK AO2 SLP167 P0000 60000 T01220028 10128 20050 58022
Loading
Personal Weather Stations






























Interactive Weather Map
Tropical Storm Tracking
New forecast layout! Learn more

10-Day Weather Forecast

Advertisements
Track Severe Weather on mobile